Ana Sayfa
METAR-TAF:

METAR-TAF

Havaalanları :

Wooster, Ohio, Amerika Birleşik Devletleri

Enlem: 40-52-23N, Boylam: 081-53-12W, yükseklik: 346 m

Güncel hava durumu gözlemi

Rapor saat 01:56 UTC de 12 dakika önce yapıldı.
Sakin rüzgar
Sıcaklık 17°C
Nem 88%
Basınç 1017 hPa
Görüş mesafesi: 16.1 km
Açık gökyüzü

METAR: KBJJ 240156Z AUTO 00000KT 10SM CLR 17/15 A3003 RMK AO2 SLP165 T01670150

Saat: 22:08 (02:08 UTC)


TAF: eksik

4.000'den fazla havaalanı için hava durumu gözlemleri ve tahminleri (METAR ve TAF raporları).

Kullanılabilir istasyonlar harita üzerinde sarı ve kırmızı noktalarla gösterilir.

İstasyonun adını görmek için fareyi noktanın üzerinde gezdirin.

Sonrasında hava gözlem ve tahminlerini görmek için tıklayın.

Haritayı değiştirmek için: yaklaştırmak için siyah artı işaretli yeşil düğmeye ve uzaklaştırmak için de eksi işaretli düğmeye hızla tıklayın; bitişik haritalar için yeşil okları kullanın.


METAR-TAF: